EXS81JC EGNT-LGKR
Flight info
| Callsign | EXS81JC |
|---|---|
| Flight time | 3h 3m |
| Altitude | 35000 |
| Route | GIRLI P18 GASKO Y250 KEFTE UY250 MAMUL L603 DOLAS DCT NAVPI DCT DODEN DCT NEGIX DCT DINKU M867 XERUM DCT BAVAX DCT RADIZ DCT GIMIX DCT ALIVO DCT UNIPA DCT VAKSU DCT RODON DCT LIMJA N732 PITAS |
| Aircraft | B738/M-SDE2E3FGHIRWXY/LB1 |
Departure
| Time | 2026-04-27 18:40 |
|---|---|
| Airport | Newcastle International Airport (EGNT) |
Arrival
| Time | 2026-04-27 21:43 |
|---|---|
| Airport | Corfu Ioannis Kapodistrias International Airport (LGKR) |
| Time | Latitude | Longitude | Altitude | Speed | Heading |
|---|---|---|---|---|---|
| 2026-04-27 18:25 | 55.03959 | -1.70526 | 264 ft | 0 kts | 274° |
| 2026-04-27 18:33 | 55.03959 | -1.70523 | 264 ft | 1 kts | 274° |
| 2026-04-27 18:33 | 55.03958 | -1.70495 | 264 ft | 3 kts | 274° |
| 2026-04-27 18:33 | 55.03956 | -1.70460 | 264 ft | 3 kts | 274° |
| 2026-04-27 18:33 | 55.03955 | -1.70426 | 264 ft | 3 kts | 266° |
| 2026-04-27 18:34 | 55.03959 | -1.70394 | 264 ft | 3 kts | 233° |
| 2026-04-27 18:34 | 55.03972 | -1.70374 | 264 ft | 2 kts | 206° |
| 2026-04-27 18:34 | 55.03983 | -1.70365 | 264 ft | 1 kts | 206° |
| 2026-04-27 18:37 | 55.03977 | -1.70369 | 264 ft | 5 kts | 200° |
| 2026-04-27 18:37 | 55.03923 | -1.70382 | 264 ft | 11 kts | 185° |
| 2026-04-27 18:37 | 55.03839 | -1.70395 | 265 ft | 12 kts | 186° |
| 2026-04-27 18:37 | 55.03764 | -1.70424 | 268 ft | 11 kts | 189° |
| 2026-04-27 18:38 | 55.03685 | -1.70435 | 271 ft | 12 kts | 184° |
| 2026-04-27 18:38 | 55.03611 | -1.70463 | 273 ft | 10 kts | 218° |
| 2026-04-27 18:38 | 55.03591 | -1.70584 | 274 ft | 10 kts | 261° |
| 2026-04-27 18:38 | 55.03544 | -1.70647 | 273 ft | 9 kts | 182° |
| 2026-04-27 18:39 | 55.03485 | -1.70649 | 273 ft | 8 kts | 182° |
| 2026-04-27 18:39 | 55.03407 | -1.70652 | 273 ft | 16 kts | 178° |
| 2026-04-27 18:39 | 55.03380 | -1.70533 | 273 ft | 10 kts | 65° |
| 2026-04-27 18:39 | 55.03447 | -1.70280 | 276 ft | 54 kts | 65° |
| 2026-04-27 18:40 | 55.03714 | -1.69278 | 266 ft | 126 kts | 65° |
| 2026-04-27 18:40 | 55.04150 | -1.67627 | 509 ft | 165 kts | 65° |
| 2026-04-27 18:40 | 55.04649 | -1.65652 | 1143 ft | 188 kts | 64° |
| 2026-04-27 18:40 | 55.05159 | -1.63546 | 2097 ft | 188 kts | 64° |
| 2026-04-27 18:41 | 55.05708 | -1.61427 | 2775 ft | 196 kts | 61° |
| 2026-04-27 18:41 | 55.06328 | -1.59245 | 3327 ft | 204 kts | 60° |
| 2026-04-27 18:41 | 55.06545 | -1.56770 | 3965 ft | 217 kts | 98° |
| 2026-04-27 18:41 | 55.05789 | -1.54442 | 4565 ft | 236 kts | 134° |
| 2026-04-27 18:42 | 55.04233 | -1.53199 | 4944 ft | 259 kts | 168° |
| 2026-04-27 18:42 | 55.03027 | -1.53005 | 5300 ft | 268 kts | 177° |
| 2026-04-27 18:42 | 55.00410 | -1.53063 | 6001 ft | 289 kts | 181° |
| 2026-04-27 18:42 | 54.98387 | -1.53177 | 6801 ft | 294 kts | 186° |
| 2026-04-27 18:43 | 54.96439 | -1.54235 | 7547 ft | 295 kts | 208° |
| 2026-04-27 18:43 | 54.94649 | -1.55986 | 7991 ft | 295 kts | 212° |
| 2026-04-27 18:43 | 54.92878 | -1.57852 | 8746 ft | 299 kts | 213° |
| 2026-04-27 18:43 | 54.91096 | -1.59743 | 9598 ft | 301 kts | 213° |
| 2026-04-27 18:44 | 54.89300 | -1.61633 | 10425 ft | 303 kts | 213° |
| 2026-04-27 18:44 | 54.87455 | -1.63559 | 10862 ft | 320 kts | 212° |
| 2026-04-27 18:44 | 54.85473 | -1.65614 | 11052 ft | 343 kts | 212° |
| 2026-04-27 18:44 | 54.83381 | -1.67769 | 11538 ft | 354 kts | 212° |
| 2026-04-27 18:45 | 54.81247 | -1.69954 | 12241 ft | 358 kts | 212° |
| 2026-04-27 18:45 | 54.79090 | -1.72157 | 12975 ft | 362 kts | 212° |
| 2026-04-27 18:45 | 54.76938 | -1.74354 | 13695 ft | 366 kts | 212° |
| 2026-04-27 18:45 | 54.74731 | -1.76604 | 14372 ft | 370 kts | 212° |
| 2026-04-27 18:46 | 54.72495 | -1.78880 | 14970 ft | 375 kts | 212° |
| 2026-04-27 18:46 | 54.70108 | -1.80780 | 15534 ft | 383 kts | 195° |
| 2026-04-27 18:46 | 54.67475 | -1.81651 | 16172 ft | 387 kts | 190° |
| 2026-04-27 18:46 | 54.64940 | -1.82373 | 16736 ft | 392 kts | 190° |
| 2026-04-27 18:47 | 54.62229 | -1.83163 | 17311 ft | 398 kts | 190° |
| 2026-04-27 18:47 | 54.59489 | -1.84004 | 17906 ft | 403 kts | 191° |
| 2026-04-27 18:47 | 54.56719 | -1.84880 | 18491 ft | 407 kts | 191° |
| 2026-04-27 18:47 | 54.54024 | -1.85740 | 18979 ft | 412 kts | 191° |
| 2026-04-27 18:48 | 54.51178 | -1.86639 | 19419 ft | 419 kts | 191° |
| 2026-04-27 18:48 | 54.48292 | -1.87543 | 19868 ft | 425 kts | 191° |
| 2026-04-27 18:48 | 54.45360 | -1.88458 | 20309 ft | 431 kts | 192° |
| 2026-04-27 18:48 | 54.42391 | -1.89385 | 20754 ft | 437 kts | 192° |
| 2026-04-27 18:49 | 54.39379 | -1.90326 | 21191 ft | 443 kts | 192° |
| 2026-04-27 18:49 | 54.36334 | -1.91280 | 21643 ft | 448 kts | 192° |
| 2026-04-27 18:49 | 54.33246 | -1.92249 | 22058 ft | 454 kts | 192° |
| 2026-04-27 18:49 | 54.30160 | -1.93214 | 22471 ft | 460 kts | 192° |
| 2026-04-27 18:50 | 54.26994 | -1.94179 | 22900 ft | 466 kts | 189° |
| 2026-04-27 18:50 | 54.23731 | -1.94333 | 23256 ft | 473 kts | 173° |
| 2026-04-27 18:50 | 54.20515 | -1.93170 | 23709 ft | 473 kts | 158° |
| 2026-04-27 18:50 | 54.17552 | -1.90804 | 24098 ft | 470 kts | 143° |
| 2026-04-27 18:51 | 54.14778 | -1.87843 | 24500 ft | 471 kts | 142° |
| 2026-04-27 18:51 | 54.12013 | -1.84818 | 24923 ft | 473 kts | 142° |
| 2026-04-27 18:51 | 54.09223 | -1.81809 | 25312 ft | 476 kts | 143° |
| 2026-04-27 18:51 | 54.06393 | -1.78829 | 25719 ft | 479 kts | 143° |
| 2026-04-27 18:52 | 54.03545 | -1.75880 | 26103 ft | 481 kts | 144° |
| 2026-04-27 18:52 | 54.00672 | -1.72922 | 26499 ft | 483 kts | 144° |
| 2026-04-27 18:52 | 53.97791 | -1.69955 | 26877 ft | 485 kts | 144° |
| 2026-04-27 18:53 | 53.92004 | -1.63990 | 27618 ft | 489 kts | 144° |
| 2026-04-27 18:53 | 53.89091 | -1.60991 | 27993 ft | 491 kts | 144° |
| 2026-04-27 18:53 | 53.86162 | -1.57982 | 28367 ft | 492 kts | 144° |
| 2026-04-27 18:53 | 53.83226 | -1.54971 | 28703 ft | 495 kts | 144° |
| 2026-04-27 18:54 | 53.80277 | -1.51951 | 29028 ft | 497 kts | 144° |
| 2026-04-27 18:54 | 53.77310 | -1.48919 | 29347 ft | 499 kts | 144° |
| 2026-04-27 18:54 | 53.74334 | -1.45881 | 29666 ft | 501 kts | 144° |
| 2026-04-27 18:54 | 53.71336 | -1.42828 | 29970 ft | 504 kts | 144° |
| 2026-04-27 18:55 | 53.68329 | -1.39774 | 30283 ft | 506 kts | 145° |
| 2026-04-27 18:55 | 53.65309 | -1.36717 | 30541 ft | 508 kts | 145° |
| 2026-04-27 18:55 | 53.62256 | -1.33706 | 30790 ft | 511 kts | 149° |
| 2026-04-27 18:55 | 53.58976 | -1.31324 | 31031 ft | 516 kts | 159° |
| 2026-04-27 18:56 | 53.55512 | -1.29719 | 31296 ft | 518 kts | 168° |
| 2026-04-27 18:56 | 53.51934 | -1.28987 | 31592 ft | 518 kts | 176° |
| 2026-04-27 18:56 | 53.48382 | -1.28157 | 31928 ft | 515 kts | 162° |
| 2026-04-27 18:56 | 53.45130 | -1.25788 | 32254 ft | 507 kts | 144° |
| 2026-04-27 18:57 | 53.42431 | -1.22088 | 32604 ft | 496 kts | 128° |
| 2026-04-27 18:57 | 53.40347 | -1.17583 | 32913 ft | 486 kts | 115° |
| 2026-04-27 18:57 | 53.38849 | -1.12570 | 33172 ft | 478 kts | 105° |
| 2026-04-27 18:57 | 53.37760 | -1.07354 | 33429 ft | 473 kts | 100° |
| 2026-04-27 18:58 | 53.36858 | -1.02067 | 33725 ft | 471 kts | 99° |
| 2026-04-27 18:58 | 53.36289 | -0.98566 | 33929 ft | 470 kts | 99° |
| 2026-04-27 18:58 | 53.35110 | -0.91521 | 34309 ft | 470 kts | 100° |
| 2026-04-27 18:58 | 53.34177 | -0.86272 | 34534 ft | 471 kts | 101° |
| 2026-04-27 18:59 | 53.33212 | -0.81040 | 34725 ft | 471 kts | 102° |
| 2026-04-27 18:59 | 53.32231 | -0.75808 | 34944 ft | 471 kts | 102° |
| 2026-04-27 18:59 | 53.31248 | -0.70585 | 35178 ft | 470 kts | 102° |
| 2026-04-27 18:59 | 53.30281 | -0.65445 | 35302 ft | 472 kts | 103° |
| 2026-04-27 19:00 | 53.29289 | -0.60183 | 35294 ft | 476 kts | 103° |
| 2026-04-27 19:00 | 53.27295 | -0.49638 | 35297 ft | 475 kts | 103° |
| 2026-04-27 19:01 | 53.25316 | -0.39212 | 35288 ft | 468 kts | 103° |
| 2026-04-27 19:01 | 53.23359 | -0.28863 | 35301 ft | 467 kts | 103° |
| 2026-04-27 19:02 | 53.21425 | -0.18809 | 35302 ft | 467 kts | 104° |
| 2026-04-27 19:02 | 53.19430 | -0.08505 | 35295 ft | 467 kts | 104° |
| 2026-04-27 19:03 | 53.17426 | 0.01812 | 35302 ft | 468 kts | 104° |
| 2026-04-27 19:03 | 53.15418 | 0.12140 | 35304 ft | 469 kts | 105° |
| 2026-04-27 19:04 | 53.13401 | 0.22476 | 35307 ft | 470 kts | 105° |
| 2026-04-27 19:04 | 53.11368 | 0.32831 | 35302 ft | 471 kts | 105° |
| 2026-04-27 19:05 | 53.09323 | 0.43193 | 35298 ft | 472 kts | 105° |
| 2026-04-27 19:05 | 53.07267 | 0.53560 | 35295 ft | 472 kts | 106° |
| 2026-04-27 19:06 | 53.05210 | 0.63870 | 35295 ft | 473 kts | 106° |
| 2026-04-27 19:06 | 53.03131 | 0.74237 | 35293 ft | 473 kts | 106° |
| 2026-04-27 19:07 | 53.01039 | 0.84618 | 35288 ft | 474 kts | 107° |
| 2026-04-27 19:07 | 52.98941 | 0.94983 | 35294 ft | 474 kts | 107° |
| 2026-04-27 19:08 | 52.96788 | 1.05323 | 35289 ft | 474 kts | 108° |
| 2026-04-27 19:08 | 52.94500 | 1.15398 | 35287 ft | 475 kts | 109° |
| 2026-04-27 19:09 | 52.92139 | 1.25619 | 35277 ft | 475 kts | 109° |
| 2026-04-27 19:09 | 52.89788 | 1.35851 | 35269 ft | 475 kts | 110° |
| 2026-04-27 19:10 | 52.87444 | 1.46071 | 35265 ft | 473 kts | 110° |
| 2026-04-27 19:10 | 52.85117 | 1.56183 | 35265 ft | 468 kts | 110° |
| 2026-04-27 19:11 | 52.82794 | 1.66224 | 35274 ft | 467 kts | 110° |
| 2026-04-27 19:11 | 52.80468 | 1.76234 | 35283 ft | 466 kts | 110° |
| 2026-04-27 19:12 | 52.78137 | 1.86215 | 35287 ft | 466 kts | 111° |
| 2026-04-27 19:12 | 52.75809 | 1.96134 | 35283 ft | 467 kts | 111° |
| 2026-04-27 19:13 | 52.73453 | 2.06133 | 35284 ft | 468 kts | 111° |
| 2026-04-27 19:13 | 52.71101 | 2.16064 | 35280 ft | 469 kts | 111° |
| 2026-04-27 19:14 | 52.68714 | 2.26096 | 35282 ft | 470 kts | 111° |
| 2026-04-27 19:14 | 52.66314 | 2.36138 | 35280 ft | 471 kts | 111° |
| 2026-04-27 19:15 | 52.63904 | 2.46175 | 35282 ft | 472 kts | 112° |
| 2026-04-27 19:15 | 52.61478 | 2.56232 | 35281 ft | 473 kts | 112° |
| 2026-04-27 19:16 | 52.59044 | 2.66280 | 35279 ft | 473 kts | 112° |
| 2026-04-27 19:16 | 52.57016 | 2.74619 | 35288 ft | 473 kts | 112° |
| 2026-04-27 19:17 | 52.54619 | 2.84360 | 35275 ft | 472 kts | 115° |
| 2026-04-27 19:17 | 52.51601 | 2.93913 | 35276 ft | 471 kts | 120° |
| 2026-04-27 19:18 | 52.48376 | 3.03257 | 35275 ft | 470 kts | 121° |
| 2026-04-27 19:18 | 52.45164 | 3.12590 | 35274 ft | 470 kts | 121° |
| 2026-04-27 19:19 | 52.41984 | 3.21942 | 35277 ft | 470 kts | 121° |
| 2026-04-27 19:19 | 52.38813 | 3.31298 | 35273 ft | 470 kts | 121° |
| 2026-04-27 19:20 | 52.35637 | 3.40645 | 35270 ft | 470 kts | 121° |
| 2026-04-27 19:20 | 52.32452 | 3.49979 | 35270 ft | 470 kts | 121° |
| 2026-04-27 19:21 | 52.29253 | 3.59315 | 35265 ft | 471 kts | 121° |
| 2026-04-27 19:21 | 52.26065 | 3.68583 | 35266 ft | 472 kts | 121° |
| 2026-04-27 19:22 | 52.22822 | 3.77974 | 35256 ft | 472 kts | 122° |
| 2026-04-27 19:22 | 52.19659 | 3.87100 | 35255 ft | 473 kts | 122° |
| 2026-04-27 19:23 | 52.16412 | 3.96436 | 35250 ft | 474 kts | 122° |
| 2026-04-27 19:23 | 52.13154 | 4.05767 | 35250 ft | 474 kts | 122° |
| 2026-04-27 19:24 | 52.09883 | 4.15101 | 35241 ft | 475 kts | 122° |
| 2026-04-27 19:24 | 52.06604 | 4.24424 | 35238 ft | 475 kts | 122° |
| 2026-04-27 19:25 | 52.03315 | 4.33741 | 35238 ft | 475 kts | 123° |
| 2026-04-27 19:25 | 52.00063 | 4.42917 | 35239 ft | 475 kts | 123° |
| 2026-04-27 19:26 | 51.96759 | 4.52207 | 35238 ft | 475 kts | 123° |
| 2026-04-27 19:26 | 51.93446 | 4.61488 | 35238 ft | 475 kts | 123° |
| 2026-04-27 19:27 | 51.90128 | 4.70749 | 35236 ft | 475 kts | 123° |
| 2026-04-27 19:27 | 51.86804 | 4.79992 | 35231 ft | 475 kts | 123° |
| 2026-04-27 19:28 | 51.83476 | 4.89215 | 35222 ft | 475 kts | 123° |
| 2026-04-27 19:28 | 51.80164 | 4.98358 | 35216 ft | 474 kts | 124° |
| 2026-04-27 19:29 | 51.76823 | 5.07547 | 35213 ft | 474 kts | 124° |
| 2026-04-27 19:29 | 51.73506 | 5.16638 | 35213 ft | 474 kts | 124° |
| 2026-04-27 19:30 | 51.70152 | 5.25800 | 35217 ft | 474 kts | 124° |
| 2026-04-27 19:30 | 51.66793 | 5.34940 | 35215 ft | 474 kts | 124° |
| 2026-04-27 19:31 | 51.63424 | 5.44075 | 35207 ft | 474 kts | 124° |
| 2026-04-27 19:31 | 51.60046 | 5.53200 | 35212 ft | 475 kts | 124° |
| 2026-04-27 19:32 | 51.56683 | 5.62241 | 35221 ft | 480 kts | 124° |
| 2026-04-27 19:32 | 51.53213 | 5.71507 | 35221 ft | 488 kts | 125° |
| 2026-04-27 19:33 | 51.49705 | 5.80871 | 35208 ft | 490 kts | 124° |
| 2026-04-27 19:33 | 51.46190 | 5.90263 | 35208 ft | 492 kts | 125° |
| 2026-04-27 19:34 | 51.42655 | 5.99650 | 35207 ft | 492 kts | 125° |
| 2026-04-27 19:34 | 51.39113 | 6.09013 | 35203 ft | 491 kts | 125° |
| 2026-04-27 19:35 | 51.35565 | 6.18349 | 35186 ft | 490 kts | 125° |
| 2026-04-27 19:35 | 51.32023 | 6.27653 | 35183 ft | 489 kts | 126° |
| 2026-04-27 19:36 | 51.28478 | 6.36911 | 35181 ft | 488 kts | 126° |
| 2026-04-27 19:36 | 51.24933 | 6.46136 | 35184 ft | 487 kts | 126° |
| 2026-04-27 19:37 | 51.21383 | 6.55330 | 35181 ft | 486 kts | 126° |
| 2026-04-27 19:37 | 51.17834 | 6.64515 | 35189 ft | 486 kts | 126° |
| 2026-04-27 19:38 | 51.14356 | 6.73491 | 35182 ft | 487 kts | 126° |
| 2026-04-27 19:38 | 51.10784 | 6.82670 | 35185 ft | 488 kts | 126° |
| 2026-04-27 19:39 | 51.07195 | 6.91854 | 35182 ft | 489 kts | 126° |
| 2026-04-27 19:39 | 51.03621 | 7.00977 | 35166 ft | 490 kts | 126° |
| 2026-04-27 19:40 | 50.99979 | 7.10240 | 35162 ft | 492 kts | 126° |
| 2026-04-27 19:40 | 50.96340 | 7.19452 | 35159 ft | 493 kts | 126° |
| 2026-04-27 19:41 | 50.92719 | 7.28614 | 35155 ft | 494 kts | 126° |
| 2026-04-27 19:41 | 50.89056 | 7.37818 | 35162 ft | 494 kts | 126° |
| 2026-04-27 19:42 | 50.85383 | 7.47012 | 35164 ft | 494 kts | 127° |
| 2026-04-27 19:42 | 50.81706 | 7.56180 | 35166 ft | 494 kts | 126° |
| 2026-04-27 19:43 | 50.78032 | 7.65349 | 35171 ft | 493 kts | 127° |
| 2026-04-27 19:43 | 50.74354 | 7.74476 | 35175 ft | 492 kts | 126° |
| 2026-04-27 19:44 | 50.70670 | 7.83579 | 35181 ft | 492 kts | 126° |
| 2026-04-27 19:44 | 50.66987 | 7.92665 | 35183 ft | 491 kts | 126° |
| 2026-04-27 19:45 | 50.63296 | 8.01726 | 35186 ft | 491 kts | 126° |
| 2026-04-27 19:45 | 50.59557 | 8.10723 | 35184 ft | 490 kts | 130° |
| 2026-04-27 19:46 | 50.55336 | 8.19123 | 35179 ft | 488 kts | 136° |
| 2026-04-27 19:46 | 50.50616 | 8.26737 | 35187 ft | 486 kts | 141° |
| 2026-04-27 19:47 | 50.45881 | 8.33885 | 35174 ft | 487 kts | 141° |
| 2026-04-27 19:47 | 50.41000 | 8.41290 | 35184 ft | 489 kts | 140° |
| 2026-04-27 19:48 | 50.36127 | 8.48768 | 35167 ft | 491 kts | 140° |
| 2026-04-27 19:48 | 50.31256 | 8.56268 | 35161 ft | 491 kts | 140° |
| 2026-04-27 19:49 | 50.26380 | 8.63757 | 35158 ft | 492 kts | 140° |
| 2026-04-27 19:49 | 50.21490 | 8.71239 | 35163 ft | 492 kts | 140° |
| 2026-04-27 19:50 | 50.16598 | 8.78699 | 35156 ft | 492 kts | 140° |
| 2026-04-27 19:50 | 50.11705 | 8.86135 | 35157 ft | 491 kts | 140° |
| 2026-04-27 19:51 | 50.06812 | 8.93551 | 35158 ft | 490 kts | 140° |
| 2026-04-27 19:51 | 50.01924 | 9.00936 | 35162 ft | 490 kts | 140° |
| 2026-04-27 19:52 | 49.97065 | 9.08254 | 35166 ft | 489 kts | 140° |
| 2026-04-27 19:52 | 49.92204 | 9.15554 | 35164 ft | 489 kts | 140° |
| 2026-04-27 19:53 | 49.84851 | 9.26555 | 35160 ft | 490 kts | 140° |
| 2026-04-27 19:53 | 49.79937 | 9.33881 | 35159 ft | 490 kts | 140° |
| 2026-04-27 19:54 | 49.75016 | 9.41195 | 35151 ft | 491 kts | 141° |
| 2026-04-27 19:54 | 49.70087 | 9.48500 | 35154 ft | 491 kts | 141° |
| 2026-04-27 19:55 | 49.65152 | 9.55793 | 35155 ft | 491 kts | 141° |
| 2026-04-27 19:55 | 49.60207 | 9.63078 | 35152 ft | 492 kts | 141° |
| 2026-04-27 19:56 | 49.55256 | 9.70351 | 35148 ft | 492 kts | 141° |
| 2026-04-27 19:56 | 49.50296 | 9.77616 | 35160 ft | 492 kts | 141° |
| 2026-04-27 19:57 | 49.45334 | 9.84861 | 35150 ft | 492 kts | 141° |
| 2026-04-27 19:57 | 49.40364 | 9.92098 | 35151 ft | 493 kts | 141° |
| 2026-04-27 19:58 | 49.35382 | 9.99331 | 35159 ft | 493 kts | 141° |
| 2026-04-27 19:58 | 49.30398 | 10.06544 | 35157 ft | 493 kts | 141° |
| 2026-04-27 19:59 | 49.25407 | 10.13748 | 35162 ft | 493 kts | 141° |
| 2026-04-27 19:59 | 49.20415 | 10.20932 | 35168 ft | 492 kts | 141° |
| 2026-04-27 20:00 | 49.15422 | 10.28096 | 35176 ft | 492 kts | 141° |
| 2026-04-27 20:00 | 49.10461 | 10.35195 | 35180 ft | 492 kts | 141° |
| 2026-04-27 20:01 | 49.05459 | 10.42331 | 35188 ft | 492 kts | 141° |
| 2026-04-27 20:01 | 49.00459 | 10.49445 | 35199 ft | 492 kts | 141° |
| 2026-04-27 20:02 | 48.95581 | 10.56364 | 35188 ft | 492 kts | 141° |
| 2026-04-27 20:02 | 48.90570 | 10.63454 | 35191 ft | 492 kts | 141° |
| 2026-04-27 20:03 | 48.85556 | 10.70529 | 35189 ft | 492 kts | 141° |
| 2026-04-27 20:03 | 48.80557 | 10.77627 | 35169 ft | 493 kts | 138° |
| 2026-04-27 20:04 | 48.75890 | 10.85284 | 35165 ft | 495 kts | 134° |
| 2026-04-27 20:04 | 48.72102 | 10.91781 | 35157 ft | 495 kts | 134° |
| 2026-04-27 20:05 | 48.67525 | 10.99562 | 35156 ft | 495 kts | 135° |
| 2026-04-27 20:05 | 48.62914 | 11.07284 | 35156 ft | 495 kts | 135° |
| 2026-04-27 20:06 | 48.58286 | 11.14979 | 35150 ft | 495 kts | 135° |
| 2026-04-27 20:06 | 48.53650 | 11.22665 | 35153 ft | 495 kts | 135° |
| 2026-04-27 20:07 | 48.49014 | 11.30333 | 35150 ft | 495 kts | 135° |
| 2026-04-27 20:07 | 48.44438 | 11.37882 | 35142 ft | 495 kts | 135° |
| 2026-04-27 20:08 | 48.39547 | 11.45927 | 35146 ft | 495 kts | 135° |
| 2026-04-27 20:08 | 48.34898 | 11.53551 | 35149 ft | 494 kts | 135° |
| 2026-04-27 20:09 | 48.30249 | 11.61157 | 35154 ft | 494 kts | 135° |
| 2026-04-27 20:09 | 48.25567 | 11.68706 | 35151 ft | 493 kts | 138° |
| 2026-04-27 20:10 | 48.20565 | 11.75711 | 35155 ft | 491 kts | 141° |
| 2026-04-27 20:10 | 48.15477 | 11.82546 | 35148 ft | 491 kts | 141° |
| 2026-04-27 20:11 | 48.10403 | 11.89408 | 35144 ft | 491 kts | 140° |
| 2026-04-27 20:11 | 48.05352 | 11.96288 | 35133 ft | 492 kts | 140° |
| 2026-04-27 20:12 | 48.01149 | 12.02015 | 35135 ft | 492 kts | 140° |
| 2026-04-27 20:12 | 47.95404 | 12.09820 | 35129 ft | 492 kts | 140° |
| 2026-04-27 20:13 | 47.90341 | 12.16674 | 35138 ft | 491 kts | 140° |
| 2026-04-27 20:13 | 47.85274 | 12.23514 | 35132 ft | 492 kts | 140° |
| 2026-04-27 20:14 | 47.80200 | 12.30345 | 35129 ft | 492 kts | 140° |
| 2026-04-27 20:14 | 47.75157 | 12.37115 | 35145 ft | 492 kts | 140° |
| 2026-04-27 20:15 | 47.70037 | 12.43971 | 35138 ft | 492 kts | 140° |
| 2026-04-27 20:15 | 47.64946 | 12.50772 | 35129 ft | 493 kts | 140° |
| 2026-04-27 20:16 | 47.59715 | 12.57309 | 35133 ft | 491 kts | 145° |
| 2026-04-27 20:16 | 47.54201 | 12.63264 | 35133 ft | 490 kts | 147° |
| 2026-04-27 20:17 | 47.48803 | 12.68984 | 35136 ft | 490 kts | 146° |
| 2026-04-27 20:17 | 47.44213 | 12.73905 | 35124 ft | 491 kts | 146° |
| 2026-04-27 20:18 | 47.37779 | 12.80858 | 35132 ft | 490 kts | 146° |
| 2026-04-27 20:18 | 47.32288 | 12.86791 | 35128 ft | 489 kts | 146° |
| 2026-04-27 20:19 | 47.26802 | 12.92701 | 35133 ft | 487 kts | 146° |
| 2026-04-27 20:19 | 47.21328 | 12.98578 | 35125 ft | 486 kts | 146° |
| 2026-04-27 20:20 | 47.15863 | 13.04428 | 35123 ft | 486 kts | 146° |
| 2026-04-27 20:20 | 47.10400 | 13.10262 | 35132 ft | 485 kts | 146° |
| 2026-04-27 20:21 | 47.04942 | 13.16077 | 35123 ft | 485 kts | 146° |
| 2026-04-27 20:21 | 46.99480 | 13.21879 | 35123 ft | 485 kts | 146° |
| 2026-04-27 20:22 | 46.94014 | 13.27671 | 35117 ft | 485 kts | 146° |
| 2026-04-27 20:22 | 46.88573 | 13.33423 | 35114 ft | 486 kts | 146° |
| 2026-04-27 20:23 | 46.83982 | 13.38265 | 35108 ft | 485 kts | 146° |
| 2026-04-27 20:23 | 46.77615 | 13.44962 | 35115 ft | 485 kts | 146° |
| 2026-04-27 20:24 | 46.73064 | 13.49736 | 35099 ft | 485 kts | 146° |
| 2026-04-27 20:24 | 46.67591 | 13.55465 | 35104 ft | 484 kts | 146° |
| 2026-04-27 20:25 | 46.62119 | 13.61180 | 35099 ft | 484 kts | 146° |
| 2026-04-27 20:25 | 46.56653 | 13.66874 | 35105 ft | 483 kts | 146° |
| 2026-04-27 20:26 | 46.51187 | 13.72556 | 35114 ft | 483 kts | 146° |
| 2026-04-27 20:26 | 46.45732 | 13.78252 | 35104 ft | 483 kts | 145° |
| 2026-04-27 20:27 | 46.40287 | 13.83944 | 35093 ft | 482 kts | 145° |
| 2026-04-27 20:27 | 46.34847 | 13.89616 | 35112 ft | 482 kts | 145° |
| 2026-04-27 20:28 | 46.29406 | 13.95270 | 35125 ft | 481 kts | 146° |
| 2026-04-27 20:28 | 46.24878 | 13.99962 | 35136 ft | 482 kts | 146° |
| 2026-04-27 20:29 | 46.18509 | 14.06548 | 35141 ft | 482 kts | 146° |
| 2026-04-27 20:29 | 46.13049 | 14.12177 | 35138 ft | 482 kts | 146° |
| 2026-04-27 20:30 | 46.07584 | 14.17798 | 35141 ft | 483 kts | 146° |
| 2026-04-27 20:30 | 46.02113 | 14.23412 | 35135 ft | 483 kts | 146° |
| 2026-04-27 20:31 | 45.96637 | 14.29017 | 35141 ft | 483 kts | 146° |
| 2026-04-27 20:31 | 45.91195 | 14.34573 | 35138 ft | 483 kts | 146° |
| 2026-04-27 20:32 | 45.85852 | 14.40015 | 35131 ft | 483 kts | 146° |
| 2026-04-27 20:32 | 45.80364 | 14.45591 | 35133 ft | 483 kts | 146° |
| 2026-04-27 20:33 | 45.74876 | 14.51154 | 35134 ft | 483 kts | 146° |
| 2026-04-27 20:33 | 45.69385 | 14.56706 | 35137 ft | 483 kts | 146° |
| 2026-04-27 20:34 | 45.63937 | 14.62202 | 35139 ft | 483 kts | 146° |
| 2026-04-27 20:34 | 45.58444 | 14.67730 | 35131 ft | 483 kts | 145° |
| 2026-04-27 20:35 | 45.52956 | 14.73242 | 35126 ft | 482 kts | 145° |
| 2026-04-27 20:35 | 45.47710 | 14.79194 | 35129 ft | 482 kts | 140° |
| 2026-04-27 20:36 | 45.42628 | 14.85420 | 35121 ft | 482 kts | 139° |
| 2026-04-27 20:36 | 45.37580 | 14.91591 | 35115 ft | 481 kts | 140° |
| 2026-04-27 20:37 | 45.32478 | 14.97743 | 35124 ft | 481 kts | 140° |
| 2026-04-27 20:37 | 45.27364 | 15.03860 | 35122 ft | 480 kts | 140° |
| 2026-04-27 20:38 | 45.22251 | 15.09955 | 35124 ft | 480 kts | 140° |
| 2026-04-27 20:38 | 45.17144 | 15.16031 | 35129 ft | 479 kts | 140° |
| 2026-04-27 20:39 | 45.12038 | 15.22092 | 35127 ft | 479 kts | 140° |
| 2026-04-27 20:39 | 45.06931 | 15.28141 | 35129 ft | 478 kts | 140° |
| 2026-04-27 20:40 | 45.01827 | 15.34172 | 35128 ft | 478 kts | 140° |
| 2026-04-27 20:40 | 44.96721 | 15.40191 | 35127 ft | 478 kts | 140° |
| 2026-04-27 20:41 | 44.91614 | 15.46197 | 35120 ft | 478 kts | 140° |
| 2026-04-27 20:41 | 44.86504 | 15.52192 | 35127 ft | 478 kts | 140° |
| 2026-04-27 20:42 | 44.81392 | 15.58175 | 35137 ft | 478 kts | 140° |
| 2026-04-27 20:42 | 44.76275 | 15.64149 | 35129 ft | 478 kts | 140° |
| 2026-04-27 20:43 | 44.71157 | 15.70109 | 35127 ft | 478 kts | 140° |
| 2026-04-27 20:43 | 44.66034 | 15.76063 | 35135 ft | 478 kts | 140° |
| 2026-04-27 20:44 | 44.60942 | 15.81966 | 35137 ft | 478 kts | 140° |
| 2026-04-27 20:44 | 44.55817 | 15.87894 | 35138 ft | 478 kts | 140° |
| 2026-04-27 20:45 | 44.50680 | 15.93820 | 35134 ft | 478 kts | 140° |
| 2026-04-27 20:45 | 44.45547 | 15.99730 | 35136 ft | 478 kts | 140° |
| 2026-04-27 20:46 | 44.40411 | 16.05628 | 35131 ft | 478 kts | 140° |
| 2026-04-27 20:46 | 44.35275 | 16.11512 | 35134 ft | 477 kts | 140° |
| 2026-04-27 20:47 | 44.30488 | 16.16984 | 35131 ft | 477 kts | 140° |
| 2026-04-27 20:47 | 44.25349 | 16.22846 | 35130 ft | 477 kts | 140° |
| 2026-04-27 20:48 | 44.20204 | 16.28702 | 35132 ft | 477 kts | 140° |
| 2026-04-27 20:48 | 44.15057 | 16.34545 | 35128 ft | 477 kts | 140° |
| 2026-04-27 20:49 | 44.09913 | 16.40373 | 35116 ft | 477 kts | 140° |
| 2026-04-27 20:49 | 44.04791 | 16.46164 | 35114 ft | 477 kts | 140° |
| 2026-04-27 20:50 | 43.99599 | 16.51909 | 35115 ft | 477 kts | 142° |
| 2026-04-27 20:50 | 43.94301 | 16.57464 | 35114 ft | 477 kts | 143° |
| 2026-04-27 20:51 | 43.88992 | 16.62986 | 35112 ft | 477 kts | 143° |
| 2026-04-27 20:51 | 43.83698 | 16.68521 | 35111 ft | 477 kts | 143° |
| 2026-04-27 20:52 | 43.78410 | 16.74059 | 35118 ft | 477 kts | 143° |
| 2026-04-27 20:52 | 43.73123 | 16.79591 | 35127 ft | 477 kts | 143° |
| 2026-04-27 20:53 | 43.67832 | 16.85114 | 35123 ft | 477 kts | 143° |
| 2026-04-27 20:53 | 43.62573 | 16.90590 | 35115 ft | 477 kts | 143° |
| 2026-04-27 20:54 | 43.54625 | 16.98841 | 35121 ft | 477 kts | 143° |
| 2026-04-27 20:55 | 43.49325 | 17.04328 | 35117 ft | 477 kts | 143° |
| 2026-04-27 20:55 | 43.44017 | 17.09810 | 35116 ft | 477 kts | 143° |
| 2026-04-27 20:56 | 43.38711 | 17.15278 | 35118 ft | 477 kts | 143° |
| 2026-04-27 20:56 | 43.33399 | 17.20740 | 35107 ft | 477 kts | 143° |
| 2026-04-27 20:57 | 43.28084 | 17.26193 | 35106 ft | 477 kts | 143° |
| 2026-04-27 20:57 | 43.22768 | 17.31636 | 35098 ft | 477 kts | 143° |
| 2026-04-27 20:58 | 43.17445 | 17.37072 | 35096 ft | 477 kts | 143° |
| 2026-04-27 20:58 | 43.12122 | 17.42497 | 35090 ft | 477 kts | 143° |
| 2026-04-27 20:59 | 43.06796 | 17.47913 | 35094 ft | 477 kts | 143° |
| 2026-04-27 20:59 | 43.01465 | 17.53322 | 35085 ft | 477 kts | 143° |
| 2026-04-27 21:00 | 42.96135 | 17.58717 | 35082 ft | 477 kts | 143° |
| 2026-04-27 21:00 | 42.90799 | 17.64108 | 35086 ft | 477 kts | 143° |
| 2026-04-27 21:01 | 42.85455 | 17.69494 | 35080 ft | 478 kts | 143° |
| 2026-04-27 21:01 | 42.80145 | 17.74834 | 35076 ft | 478 kts | 143° |
| 2026-04-27 21:02 | 42.74797 | 17.80201 | 35082 ft | 478 kts | 143° |
| 2026-04-27 21:02 | 42.69506 | 17.85499 | 35074 ft | 477 kts | 143° |
| 2026-04-27 21:03 | 42.64154 | 17.90846 | 35077 ft | 477 kts | 143° |
| 2026-04-27 21:03 | 42.58801 | 17.96184 | 35080 ft | 477 kts | 143° |
| 2026-04-27 21:04 | 42.53448 | 18.01508 | 35078 ft | 477 kts | 143° |
| 2026-04-27 21:04 | 42.48094 | 18.06823 | 35075 ft | 477 kts | 143° |
| 2026-04-27 21:05 | 42.42742 | 18.12125 | 35075 ft | 477 kts | 143° |
| 2026-04-27 21:05 | 42.37389 | 18.17416 | 35071 ft | 476 kts | 143° |
| 2026-04-27 21:06 | 42.32039 | 18.22692 | 35074 ft | 476 kts | 143° |
| 2026-04-27 21:06 | 42.26689 | 18.27957 | 35069 ft | 476 kts | 143° |
| 2026-04-27 21:07 | 42.21338 | 18.33212 | 35071 ft | 476 kts | 143° |
| 2026-04-27 21:07 | 42.16023 | 18.38421 | 35072 ft | 476 kts | 143° |
| 2026-04-27 21:08 | 42.10668 | 18.43659 | 35072 ft | 476 kts | 143° |
| 2026-04-27 21:08 | 42.05312 | 18.48888 | 35081 ft | 476 kts | 143° |
| 2026-04-27 21:09 | 41.99965 | 18.54120 | 35078 ft | 476 kts | 142° |
| 2026-04-27 21:09 | 41.94763 | 18.59502 | 35084 ft | 475 kts | 141° |
| 2026-04-27 21:10 | 41.89561 | 18.64968 | 35075 ft | 470 kts | 141° |
| 2026-04-27 21:10 | 41.87016 | 18.67627 | 35063 ft | 457 kts | 142° |
| 2026-04-27 21:10 | 41.84526 | 18.70216 | 35068 ft | 451 kts | 142° |
| 2026-04-27 21:11 | 41.79559 | 18.75356 | 35088 ft | 451 kts | 142° |
| 2026-04-27 21:11 | 41.74582 | 18.80491 | 35086 ft | 452 kts | 142° |
| 2026-04-27 21:12 | 41.69590 | 18.85631 | 35089 ft | 453 kts | 142° |
| 2026-04-27 21:12 | 41.64567 | 18.90795 | 35104 ft | 460 kts | 142° |
| 2026-04-27 21:13 | 41.59428 | 18.96067 | 35094 ft | 471 kts | 142° |
| 2026-04-27 21:13 | 41.54207 | 19.01414 | 35071 ft | 468 kts | 142° |
| 2026-04-27 21:13 | 41.51664 | 19.04014 | 35052 ft | 454 kts | 142° |
| 2026-04-27 21:14 | 41.50011 | 19.05702 | 34822 ft | 450 kts | 142° |
| 2026-04-27 21:14 | 41.47546 | 19.08208 | 34561 ft | 442 kts | 144° |
| 2026-04-27 21:14 | 41.44961 | 19.10364 | 34237 ft | 436 kts | 154° |
| 2026-04-27 21:14 | 41.42221 | 19.11886 | 34292 ft | 423 kts | 162° |
| 2026-04-27 21:15 | 41.39427 | 19.13197 | 34307 ft | 429 kts | 162° |
| 2026-04-27 21:15 | 41.36598 | 19.14538 | 34173 ft | 432 kts | 161° |
| 2026-04-27 21:15 | 41.33782 | 19.15887 | 33781 ft | 428 kts | 161° |
| 2026-04-27 21:15 | 41.30986 | 19.17238 | 33213 ft | 429 kts | 161° |
| 2026-04-27 21:16 | 41.28176 | 19.18602 | 32641 ft | 430 kts | 161° |
| 2026-04-27 21:16 | 41.25373 | 19.19967 | 32184 ft | 428 kts | 161° |
| 2026-04-27 21:16 | 41.22588 | 19.21323 | 31808 ft | 425 kts | 161° |
| 2026-04-27 21:16 | 41.19826 | 19.22668 | 31445 ft | 421 kts | 161° |
| 2026-04-27 21:17 | 41.17084 | 19.24001 | 31068 ft | 418 kts | 161° |
| 2026-04-27 21:17 | 41.14506 | 19.25253 | 30687 ft | 416 kts | 161° |
| 2026-04-27 21:17 | 41.11790 | 19.26571 | 30307 ft | 414 kts | 161° |
| 2026-04-27 21:17 | 41.09089 | 19.27880 | 29888 ft | 412 kts | 161° |
| 2026-04-27 21:18 | 41.06411 | 19.29176 | 29447 ft | 409 kts | 162° |
| 2026-04-27 21:18 | 41.03747 | 19.30465 | 29019 ft | 406 kts | 162° |
| 2026-04-27 21:18 | 41.01104 | 19.31742 | 28604 ft | 403 kts | 162° |
| 2026-04-27 21:18 | 40.98482 | 19.33009 | 28185 ft | 400 kts | 162° |
| 2026-04-27 21:19 | 40.95871 | 19.34268 | 27764 ft | 398 kts | 162° |
| 2026-04-27 21:19 | 40.93277 | 19.35518 | 27360 ft | 395 kts | 162° |
| 2026-04-27 21:19 | 40.90702 | 19.36759 | 26955 ft | 393 kts | 162° |
| 2026-04-27 21:20 | 40.85593 | 19.39217 | 26183 ft | 388 kts | 162° |
| 2026-04-27 21:20 | 40.83064 | 19.40432 | 25793 ft | 386 kts | 162° |
| 2026-04-27 21:20 | 40.80544 | 19.41641 | 25418 ft | 384 kts | 162° |
| 2026-04-27 21:20 | 40.78038 | 19.42844 | 25047 ft | 382 kts | 162° |
| 2026-04-27 21:21 | 40.75546 | 19.44038 | 24676 ft | 380 kts | 162° |
| 2026-04-27 21:21 | 40.73071 | 19.45223 | 24322 ft | 378 kts | 162° |
| 2026-04-27 21:21 | 40.70603 | 19.46404 | 23970 ft | 376 kts | 162° |
| 2026-04-27 21:21 | 40.68148 | 19.47578 | 23609 ft | 374 kts | 162° |
| 2026-04-27 21:22 | 40.65712 | 19.48743 | 23212 ft | 372 kts | 162° |
| 2026-04-27 21:22 | 40.63287 | 19.49901 | 22837 ft | 369 kts | 161° |
| 2026-04-27 21:22 | 40.60879 | 19.51050 | 22474 ft | 366 kts | 161° |
| 2026-04-27 21:22 | 40.58491 | 19.52189 | 22103 ft | 364 kts | 161° |
| 2026-04-27 21:23 | 40.56119 | 19.53318 | 21731 ft | 362 kts | 161° |
| 2026-04-27 21:23 | 40.53759 | 19.54438 | 21376 ft | 359 kts | 161° |
| 2026-04-27 21:23 | 40.51412 | 19.55550 | 21024 ft | 357 kts | 161° |
| 2026-04-27 21:23 | 40.49061 | 19.56664 | 20284 ft | 366 kts | 161° |
| 2026-04-27 21:24 | 40.46656 | 19.57802 | 19971 ft | 366 kts | 161° |
| 2026-04-27 21:24 | 40.44213 | 19.58957 | 19604 ft | 379 kts | 161° |
| 2026-04-27 21:24 | 40.41741 | 19.60125 | 19213 ft | 385 kts | 161° |
| 2026-04-27 21:24 | 40.39182 | 19.61335 | 18826 ft | 385 kts | 161° |
| 2026-04-27 21:25 | 40.36705 | 19.62505 | 18449 ft | 383 kts | 160° |
| 2026-04-27 21:25 | 40.34206 | 19.63685 | 18017 ft | 380 kts | 160° |
| 2026-04-27 21:25 | 40.31726 | 19.64855 | 17606 ft | 377 kts | 160° |
| 2026-04-27 21:25 | 40.29265 | 19.66015 | 17211 ft | 374 kts | 160° |
| 2026-04-27 21:26 | 40.26823 | 19.67165 | 16839 ft | 371 kts | 161° |
| 2026-04-27 21:26 | 40.24403 | 19.68304 | 16470 ft | 368 kts | 161° |
| 2026-04-27 21:26 | 40.22004 | 19.69432 | 16107 ft | 366 kts | 161° |
| 2026-04-27 21:26 | 40.19618 | 19.70553 | 15747 ft | 363 kts | 161° |
| 2026-04-27 21:27 | 40.17217 | 19.71680 | 15375 ft | 361 kts | 161° |
| 2026-04-27 21:27 | 40.14855 | 19.72788 | 15024 ft | 359 kts | 161° |
| 2026-04-27 21:27 | 40.12540 | 19.73873 | 14662 ft | 358 kts | 161° |
| 2026-04-27 21:27 | 40.10199 | 19.74969 | 14308 ft | 357 kts | 161° |
| 2026-04-27 21:28 | 40.07876 | 19.76057 | 13944 ft | 353 kts | 161° |
| 2026-04-27 21:28 | 40.05581 | 19.77130 | 13551 ft | 348 kts | 161° |
| 2026-04-27 21:28 | 40.03319 | 19.78188 | 13174 ft | 343 kts | 161° |
| 2026-04-27 21:28 | 40.01084 | 19.79232 | 12826 ft | 338 kts | 161° |
| 2026-04-27 21:29 | 39.98885 | 19.80258 | 12489 ft | 334 kts | 161° |
| 2026-04-27 21:29 | 39.96786 | 19.81238 | 12145 ft | 331 kts | 161° |
| 2026-04-27 21:29 | 39.94632 | 19.82242 | 11804 ft | 327 kts | 161° |
| 2026-04-27 21:29 | 39.92497 | 19.83237 | 11459 ft | 324 kts | 161° |
| 2026-04-27 21:30 | 39.90375 | 19.84224 | 11118 ft | 323 kts | 161° |
| 2026-04-27 21:30 | 39.88271 | 19.85238 | 10815 ft | 322 kts | 160° |
| 2026-04-27 21:30 | 39.86190 | 19.86284 | 10510 ft | 320 kts | 159° |
| 2026-04-27 21:30 | 39.84126 | 19.87334 | 10208 ft | 317 kts | 159° |
| 2026-04-27 21:31 | 39.82093 | 19.88367 | 9900 ft | 311 kts | 159° |
| 2026-04-27 21:31 | 39.80089 | 19.89383 | 9570 ft | 306 kts | 159° |
| 2026-04-27 21:31 | 39.78092 | 19.90393 | 9264 ft | 301 kts | 159° |
| 2026-04-27 21:31 | 39.76181 | 19.91357 | 8984 ft | 296 kts | 159° |
| 2026-04-27 21:32 | 39.74276 | 19.92316 | 8704 ft | 292 kts | 159° |
| 2026-04-27 21:32 | 39.72498 | 19.93211 | 8440 ft | 288 kts | 159° |
| 2026-04-27 21:32 | 39.70621 | 19.94154 | 8166 ft | 284 kts | 159° |
| 2026-04-27 21:32 | 39.68788 | 19.95074 | 7904 ft | 280 kts | 159° |
| 2026-04-27 21:33 | 39.66985 | 19.95979 | 7642 ft | 276 kts | 159° |
| 2026-04-27 21:33 | 39.65227 | 19.96861 | 7382 ft | 273 kts | 159° |
| 2026-04-27 21:33 | 39.63463 | 19.97745 | 7124 ft | 270 kts | 159° |
| 2026-04-27 21:33 | 39.61719 | 19.98618 | 6876 ft | 267 kts | 159° |
| 2026-04-27 21:34 | 39.59991 | 19.99483 | 6624 ft | 265 kts | 159° |
| 2026-04-27 21:34 | 39.58280 | 20.00339 | 6363 ft | 263 kts | 159° |
| 2026-04-27 21:34 | 39.56582 | 20.01189 | 6099 ft | 260 kts | 159° |
| 2026-04-27 21:34 | 39.54877 | 20.02041 | 5848 ft | 258 kts | 159° |
| 2026-04-27 21:35 | 39.53212 | 20.02874 | 5598 ft | 256 kts | 159° |
| 2026-04-27 21:35 | 39.51560 | 20.03698 | 5346 ft | 253 kts | 159° |
| 2026-04-27 21:35 | 39.49919 | 20.04517 | 5104 ft | 250 kts | 158° |
| 2026-04-27 21:35 | 39.48363 | 20.05292 | 4932 ft | 238 kts | 158° |
| 2026-04-27 21:36 | 39.46807 | 20.05973 | 4591 ft | 233 kts | 171° |
| 2026-04-27 21:36 | 39.45253 | 20.05670 | 4351 ft | 225 kts | 204° |
| 2026-04-27 21:36 | 39.44079 | 20.04429 | 4122 ft | 218 kts | 236° |
| 2026-04-27 21:36 | 39.43664 | 20.02611 | 3917 ft | 210 kts | 272° |
| 2026-04-27 21:37 | 39.44134 | 20.00880 | 3739 ft | 205 kts | 310° |
| 2026-04-27 21:37 | 39.45289 | 19.99898 | 3695 ft | 201 kts | 347° |
| 2026-04-27 21:37 | 39.46661 | 20.00015 | 3634 ft | 199 kts | 26° |
| 2026-04-27 21:37 | 39.47692 | 20.01155 | 3580 ft | 196 kts | 60° |
| 2026-04-27 21:38 | 39.47998 | 20.02820 | 3305 ft | 192 kts | 99° |
| 2026-04-27 21:38 | 39.47419 | 20.04323 | 3076 ft | 188 kts | 139° |
| 2026-04-27 21:38 | 39.46238 | 20.04970 | 2974 ft | 191 kts | 176° |
| 2026-04-27 21:38 | 39.44960 | 20.04497 | 2917 ft | 197 kts | 214° |
| 2026-04-27 21:39 | 39.44152 | 20.03063 | 2909 ft | 203 kts | 252° |
| 2026-04-27 21:39 | 39.44030 | 20.01246 | 2914 ft | 202 kts | 269° |
| 2026-04-27 21:39 | 39.44068 | 19.99458 | 2900 ft | 196 kts | 273° |
| 2026-04-27 21:39 | 39.44596 | 19.97910 | 2888 ft | 188 kts | 320° |
| 2026-04-27 21:40 | 39.45654 | 19.96965 | 2907 ft | 186 kts | 329° |
| 2026-04-27 21:40 | 39.46771 | 19.96165 | 2876 ft | 187 kts | 334° |
| 2026-04-27 21:40 | 39.47980 | 19.95446 | 2571 ft | 193 kts | 338° |
| 2026-04-27 21:40 | 39.49220 | 19.94820 | 2283 ft | 189 kts | 341° |
| 2026-04-27 21:41 | 39.50437 | 19.94286 | 2066 ft | 177 kts | 343° |
| 2026-04-27 21:41 | 39.51564 | 19.93849 | 2050 ft | 167 kts | 345° |
| 2026-04-27 21:41 | 39.52647 | 19.93381 | 1913 ft | 161 kts | 339° |
| 2026-04-27 21:41 | 39.53688 | 19.92890 | 1551 ft | 155 kts | 345° |
| 2026-04-27 21:42 | 39.54701 | 19.92626 | 1270 ft | 146 kts | 350° |
| 2026-04-27 21:42 | 39.55687 | 19.92373 | 911 ft | 142 kts | 347° |
| 2026-04-27 21:42 | 39.56638 | 19.92115 | 641 ft | 138 kts | 349° |
| 2026-04-27 21:42 | 39.57576 | 19.91887 | 409 ft | 135 kts | 349° |
| 2026-04-27 21:43 | 39.58510 | 19.91647 | 201 ft | 139 kts | 350° |
| 2026-04-27 21:43 | 39.59449 | 19.91406 | 28 ft | 133 kts | 349° |
| 2026-04-27 21:43 | 39.60265 | 19.91194 | 20 ft | 103 kts | 348° |
| 2026-04-27 21:43 | 39.60825 | 19.91051 | 19 ft | 44 kts | 349° |
| 2026-04-27 21:44 | 39.60994 | 19.91012 | 18 ft | 13 kts | 8° |
| 2026-04-27 21:44 | 39.61049 | 19.91080 | 18 ft | 7 kts | 60° |
| 2026-04-27 21:44 | 39.61035 | 19.91124 | 20 ft | 5 kts | 155° |
| 2026-04-27 21:44 | 39.60988 | 19.91140 | 19 ft | 8 kts | 167° |
| 2026-04-27 21:45 | 39.60936 | 19.91155 | 18 ft | 8 kts | 167° |
| 2026-04-27 21:45 | 39.60881 | 19.91170 | 18 ft | 8 kts | 168° |
| 2026-04-27 21:45 | 39.60813 | 19.91187 | 17 ft | 12 kts | 168° |
| 2026-04-27 21:45 | 39.60733 | 19.91208 | 19 ft | 11 kts | 168° |
| 2026-04-27 21:46 | 39.60667 | 19.91225 | 17 ft | 7 kts | 168° |
| 2026-04-27 21:46 | 39.60652 | 19.91253 | 17 ft | 2 kts | 91° |
| 2026-04-27 21:46 | 39.60657 | 19.91287 | 18 ft | 5 kts | 79° |
| 2026-04-27 21:46 | 39.60664 | 19.91337 | 18 ft | 4 kts | 79° |
| 2026-04-27 21:47 | 39.60668 | 19.91361 | 19 ft | 0 kts | 77° |